South Shore, South Dakota
Current Conditions -  °F | °C
As of 10:03 PM on Saturday 20 Dec 2014 (Local Time) from KATY Reporting Station
Haze Haze  
Wind Chill: 18°   Ceiling: 200
Heat Index: 29°   Visibility: 1.7mi
Dew Point: 28°   Wind: 14mph
Humidity: 96%   Direction: 190°S
Pressure: 29.91"   Gusts: NA
Location:  45.11°N, 96.93°W
Report Text: KATY 210403Z AUTO 19012KT 1 3/4SM BR OVC002 M02/M02 A2991 RMK AO2 T10171022
Loading
Personal Weather Stations






























Interactive Weather Map New forecast layout! Learn more

10-Day Weather Forecast

Advertisements
Track Severe Weather on mobile